Terminal Aerodrome Forecast
Issued by NWS

Home | Current Version | Previous Version | Text Only | Print | Product List | Glossary Off
Versions: 1 2 3 4 5 6 7 8 9 10 11 12 13

000
FTUS43 KMPX 170520
TAFRWF
TAF
KRWF 170520Z 1706/1806 14015G23KT P6SM SCT040 BKN150
     FM171300 16010KT P6SM OVC012
     FM171500 17006KT 4SM -DZ BR OVC007
     FM171900 34006KT 5SM BR OVC010
     FM172200 35008KT P6SM OVC020=

USA.gov is the U.S. government's official web portal to all federal, state and local government web resources and services.